LTG11AY GCLP-SBFZ
Flight info
| Callsign | LTG11AY |
|---|---|
| Flight time | 5h 32m |
| Altitude | 30000 |
| Route | LOMAS DCT URQUI/N0484F310 DCT ORVEK/N0488F300 N866 TENPA UN866 IRANI/N0490F320 UN866 AMDOL/N0493F310 UN866 BUXON/N0487F330 UN866 DEKON/N0490F320 UN866 ARTIG UZ18 ROLID |
| Aircraft | B763/H-SDE3FGHIM3RWXY/LB1 |
Departure
| Time | 2026-04-28 16:59 |
|---|---|
| Airport | Gran Canaria Airport (GCLP) |
Arrival
| Time | 2026-04-28 22:31 |
|---|---|
| Airport | Pinto Martins International Airport (SBFZ) |
| Time | Latitude | Longitude | Altitude | Speed | Heading |
|---|---|---|---|---|---|
| 2026-04-28 16:26 | 27.92867 | -15.39247 | 125 ft | 0 kts | 292° |
| 2026-04-28 16:48 | 27.92865 | -15.39241 | 125 ft | 2 kts | 292° |
| 2026-04-28 16:49 | 27.92860 | -15.39229 | 126 ft | 0 kts | 292° |
| 2026-04-28 16:49 | 27.92856 | -15.39215 | 126 ft | 2 kts | 281° |
| 2026-04-28 16:49 | 27.92855 | -15.39198 | 126 ft | 2 kts | 265° |
| 2026-04-28 16:49 | 27.92857 | -15.39182 | 125 ft | 2 kts | 251° |
| 2026-04-28 16:50 | 27.92863 | -15.39166 | 123 ft | 2 kts | 237° |
| 2026-04-28 16:50 | 27.92872 | -15.39153 | 121 ft | 2 kts | 223° |
| 2026-04-28 16:50 | 27.92884 | -15.39142 | 119 ft | 2 kts | 208° |
| 2026-04-28 16:50 | 27.92892 | -15.39138 | 118 ft | 1 kts | 200° |
| 2026-04-28 16:51 | 27.92896 | -15.39136 | 118 ft | 0 kts | 201° |
| 2026-04-28 16:54 | 27.92890 | -15.39136 | 117 ft | 2 kts | 171° |
| 2026-04-28 16:54 | 27.92858 | -15.39073 | 112 ft | 15 kts | 113° |
| 2026-04-28 16:54 | 27.92772 | -15.39045 | 109 ft | 13 kts | 196° |
| 2026-04-28 16:54 | 27.92722 | -15.39064 | 110 ft | 9 kts | 200° |
| 2026-04-28 16:55 | 27.92650 | -15.39095 | 113 ft | 7 kts | 202° |
| 2026-04-28 16:55 | 27.92606 | -15.39114 | 114 ft | 7 kts | 202° |
| 2026-04-28 16:55 | 27.92519 | -15.39152 | 117 ft | 22 kts | 201° |
| 2026-04-28 16:55 | 27.92342 | -15.39231 | 123 ft | 30 kts | 202° |
| 2026-04-28 16:56 | 27.92168 | -15.39306 | 125 ft | 22 kts | 191° |
| 2026-04-28 16:56 | 27.92016 | -15.39300 | 122 ft | 20 kts | 177° |
| 2026-04-28 16:56 | 27.91928 | -15.39233 | 117 ft | 11 kts | 69° |
| 2026-04-28 16:56 | 27.91964 | -15.39201 | 116 ft | 0 kts | 20° |
| 2026-04-28 16:58 | 27.92021 | -15.39176 | 115 ft | 35 kts | 21° |
| 2026-04-28 16:58 | 27.92494 | -15.38967 | 102 ft | 109 kts | 21° |
| 2026-04-28 16:58 | 27.93410 | -15.38562 | 96 ft | 171 kts | 21° |
| 2026-04-28 16:59 | 27.94590 | -15.38013 | 743 ft | 187 kts | 20° |
| 2026-04-28 16:59 | 27.95733 | -15.37517 | 1573 ft | 179 kts | 19° |
| 2026-04-28 16:59 | 27.96900 | -15.37020 | 2299 ft | 182 kts | 19° |
| 2026-04-28 16:59 | 27.98081 | -15.36514 | 3023 ft | 184 kts | 19° |
| 2026-04-28 17:00 | 27.99278 | -15.36001 | 3749 ft | 186 kts | 19° |
| 2026-04-28 17:00 | 28.00473 | -15.35488 | 4474 ft | 186 kts | 19° |
| 2026-04-28 17:00 | 28.01670 | -15.34975 | 5196 ft | 185 kts | 19° |
| 2026-04-28 17:00 | 28.02794 | -15.34306 | 5890 ft | 185 kts | 46° |
| 2026-04-28 17:01 | 28.03328 | -15.33004 | 6476 ft | 193 kts | 88° |
| 2026-04-28 17:01 | 28.03000 | -15.31546 | 7056 ft | 198 kts | 113° |
| 2026-04-28 17:01 | 28.02413 | -15.30123 | 7546 ft | 205 kts | 111° |
| 2026-04-28 17:01 | 28.01826 | -15.28632 | 8071 ft | 213 kts | 112° |
| 2026-04-28 17:02 | 28.01197 | -15.27064 | 8601 ft | 222 kts | 112° |
| 2026-04-28 17:02 | 28.00768 | -15.26000 | 8937 ft | 228 kts | 113° |
| 2026-04-28 17:02 | 27.99863 | -15.23762 | 9637 ft | 242 kts | 113° |
| 2026-04-28 17:02 | 27.99156 | -15.22018 | 10146 ft | 252 kts | 114° |
| 2026-04-28 17:03 | 27.97622 | -15.18244 | 11102 ft | 280 kts | 114° |
| 2026-04-28 17:03 | 27.96792 | -15.16203 | 11589 ft | 296 kts | 114° |
| 2026-04-28 17:03 | 27.95912 | -15.14042 | 12033 ft | 306 kts | 114° |
| 2026-04-28 17:04 | 27.94094 | -15.09581 | 12791 ft | 321 kts | 114° |
| 2026-04-28 17:04 | 27.93146 | -15.07255 | 13189 ft | 329 kts | 114° |
| 2026-04-28 17:05 | 27.91102 | -15.02527 | 13959 ft | 343 kts | 126° |
| 2026-04-28 17:05 | 27.89487 | -15.00547 | 14378 ft | 346 kts | 144° |
| 2026-04-28 17:05 | 27.87393 | -14.99185 | 14799 ft | 348 kts | 162° |
| 2026-04-28 17:06 | 27.82648 | -14.98836 | 15786 ft | 346 kts | 198° |
| 2026-04-28 17:06 | 27.80454 | -14.99842 | 16201 ft | 346 kts | 214° |
| 2026-04-28 17:06 | 27.77179 | -15.03887 | 16592 ft | 364 kts | 248° |
| 2026-04-28 17:07 | 27.76288 | -15.06596 | 16675 ft | 378 kts | 252° |
| 2026-04-28 17:07 | 27.75176 | -15.09339 | 16733 ft | 396 kts | 242° |
| 2026-04-28 17:07 | 27.73747 | -15.12055 | 17097 ft | 404 kts | 241° |
| 2026-04-28 17:07 | 27.72308 | -15.14758 | 17723 ft | 405 kts | 242° |
| 2026-04-28 17:08 | 27.70912 | -15.17517 | 18214 ft | 408 kts | 243° |
| 2026-04-28 17:08 | 27.69598 | -15.20378 | 18750 ft | 410 kts | 246° |
| 2026-04-28 17:08 | 27.68426 | -15.23289 | 19244 ft | 413 kts | 249° |
| 2026-04-28 17:08 | 27.67390 | -15.26311 | 19762 ft | 415 kts | 252° |
| 2026-04-28 17:09 | 27.66522 | -15.29396 | 20316 ft | 415 kts | 256° |
| 2026-04-28 17:09 | 27.65824 | -15.32558 | 20755 ft | 418 kts | 259° |
| 2026-04-28 17:09 | 27.65312 | -15.35777 | 21259 ft | 418 kts | 263° |
| 2026-04-28 17:09 | 27.64984 | -15.39059 | 21663 ft | 421 kts | 267° |
| 2026-04-28 17:10 | 27.64856 | -15.42353 | 22050 ft | 424 kts | 271° |
| 2026-04-28 17:10 | 27.64925 | -15.45674 | 22504 ft | 425 kts | 274° |
| 2026-04-28 17:10 | 27.65209 | -15.48970 | 22852 ft | 427 kts | 280° |
| 2026-04-28 17:10 | 27.65950 | -15.52241 | 23232 ft | 430 kts | 290° |
| 2026-04-28 17:11 | 27.67108 | -15.55340 | 23582 ft | 432 kts | 293° |
| 2026-04-28 17:11 | 27.68255 | -15.58456 | 23934 ft | 435 kts | 292° |
| 2026-04-28 17:11 | 27.69283 | -15.61654 | 24296 ft | 436 kts | 285° |
| 2026-04-28 17:11 | 27.69831 | -15.65043 | 24618 ft | 439 kts | 275° |
| 2026-04-28 17:12 | 27.69845 | -15.68461 | 24950 ft | 442 kts | 265° |
| 2026-04-28 17:12 | 27.69322 | -15.71897 | 25322 ft | 445 kts | 256° |
| 2026-04-28 17:12 | 27.68292 | -15.75165 | 25637 ft | 449 kts | 246° |
| 2026-04-28 17:12 | 27.66754 | -15.78246 | 25991 ft | 452 kts | 237° |
| 2026-04-28 17:13 | 27.64895 | -15.81150 | 26219 ft | 457 kts | 237° |
| 2026-04-28 17:13 | 27.63088 | -15.84063 | 26590 ft | 456 kts | 237° |
| 2026-04-28 17:13 | 27.61265 | -15.87011 | 26901 ft | 458 kts | 237° |
| 2026-04-28 17:13 | 27.59463 | -15.89952 | 27130 ft | 461 kts | 237° |
| 2026-04-28 17:14 | 27.57634 | -15.92946 | 27472 ft | 462 kts | 237° |
| 2026-04-28 17:14 | 27.55812 | -15.95935 | 27705 ft | 464 kts | 237° |
| 2026-04-28 17:14 | 27.54002 | -15.98908 | 27977 ft | 465 kts | 238° |
| 2026-04-28 17:14 | 27.52163 | -16.01930 | 28244 ft | 466 kts | 237° |
| 2026-04-28 17:15 | 27.50320 | -16.04959 | 28461 ft | 468 kts | 238° |
| 2026-04-28 17:15 | 27.48495 | -16.07958 | 28737 ft | 468 kts | 238° |
| 2026-04-28 17:15 | 27.46644 | -16.10997 | 28980 ft | 469 kts | 238° |
| 2026-04-28 17:15 | 27.44820 | -16.13991 | 29217 ft | 469 kts | 238° |
| 2026-04-28 17:16 | 27.42965 | -16.17034 | 29564 ft | 467 kts | 238° |
| 2026-04-28 17:16 | 27.41150 | -16.20011 | 29810 ft | 467 kts | 238° |
| 2026-04-28 17:16 | 27.39306 | -16.23032 | 29998 ft | 464 kts | 238° |
| 2026-04-28 17:16 | 27.37487 | -16.26011 | 29995 ft | 463 kts | 238° |
| 2026-04-28 17:17 | 27.33849 | -16.31964 | 30005 ft | 464 kts | 238° |
| 2026-04-28 17:17 | 27.30185 | -16.37950 | 30004 ft | 463 kts | 238° |
| 2026-04-28 17:18 | 27.26564 | -16.43859 | 30005 ft | 462 kts | 238° |
| 2026-04-28 17:18 | 27.22903 | -16.49826 | 30006 ft | 462 kts | 238° |
| 2026-04-28 17:19 | 27.19274 | -16.55728 | 30005 ft | 461 kts | 238° |
| 2026-04-28 17:19 | 27.15632 | -16.61647 | 30005 ft | 460 kts | 238° |
| 2026-04-28 17:20 | 27.12608 | -16.66554 | 30010 ft | 459 kts | 238° |
| 2026-04-28 17:20 | 27.08375 | -16.73417 | 30011 ft | 458 kts | 238° |
| 2026-04-28 17:21 | 27.04751 | -16.79283 | 30014 ft | 458 kts | 238° |
| 2026-04-28 17:22 | 26.99302 | -16.88090 | 30009 ft | 459 kts | 238° |
| 2026-04-28 17:22 | 26.95675 | -16.93941 | 30010 ft | 457 kts | 238° |
| 2026-04-28 17:23 | 26.90234 | -17.02706 | 30007 ft | 457 kts | 238° |
| 2026-04-28 17:23 | 26.86965 | -17.08743 | 30014 ft | 455 kts | 243° |
| 2026-04-28 17:24 | 26.83866 | -17.14893 | 30004 ft | 455 kts | 243° |
| 2026-04-28 17:24 | 26.80742 | -17.21053 | 30007 ft | 454 kts | 243° |
| 2026-04-28 17:25 | 26.76076 | -17.30206 | 30003 ft | 453 kts | 243° |
| 2026-04-28 17:26 | 26.72941 | -17.36338 | 30004 ft | 453 kts | 243° |
| 2026-04-28 17:26 | 26.69828 | -17.42418 | 30002 ft | 452 kts | 243° |
| 2026-04-28 17:27 | 26.66705 | -17.48508 | 30003 ft | 452 kts | 243° |
| 2026-04-28 17:27 | 26.63574 | -17.54607 | 30003 ft | 453 kts | 243° |
| 2026-04-28 17:28 | 26.60439 | -17.60700 | 30002 ft | 452 kts | 243° |
| 2026-04-28 17:28 | 26.55747 | -17.69807 | 30011 ft | 453 kts | 243° |
| 2026-04-28 17:29 | 26.52612 | -17.75882 | 30009 ft | 452 kts | 243° |
| 2026-04-28 17:30 | 26.47895 | -17.85006 | 30012 ft | 452 kts | 243° |
| 2026-04-28 17:30 | 26.43217 | -17.94038 | 30010 ft | 449 kts | 243° |
| 2026-04-28 17:31 | 26.38528 | -18.03072 | 30005 ft | 450 kts | 243° |
| 2026-04-28 17:32 | 26.33832 | -18.12099 | 30002 ft | 449 kts | 243° |
| 2026-04-28 17:32 | 26.30694 | -18.18124 | 30008 ft | 450 kts | 243° |
| 2026-04-28 17:33 | 26.27559 | -18.24133 | 30002 ft | 451 kts | 243° |
| 2026-04-28 17:33 | 26.25451 | -18.28168 | 30004 ft | 451 kts | 243° |
| 2026-04-28 17:34 | 26.21248 | -18.36204 | 30004 ft | 450 kts | 243° |
| 2026-04-28 17:34 | 26.18116 | -18.42185 | 30006 ft | 449 kts | 243° |
| 2026-04-28 17:35 | 26.14977 | -18.48170 | 30000 ft | 450 kts | 243° |
| 2026-04-28 17:35 | 26.11822 | -18.54176 | 29998 ft | 451 kts | 243° |
| 2026-04-28 17:36 | 26.08655 | -18.60200 | 30001 ft | 450 kts | 243° |
| 2026-04-28 17:36 | 26.05503 | -18.66185 | 29999 ft | 451 kts | 242° |
| 2026-04-28 17:37 | 26.02347 | -18.72170 | 30013 ft | 449 kts | 242° |
| 2026-04-28 17:37 | 25.99156 | -18.78102 | 29998 ft | 449 kts | 238° |
| 2026-04-28 17:38 | 25.94755 | -18.83102 | 30030 ft | 461 kts | 220° |
| 2026-04-28 17:38 | 25.89399 | -18.87065 | 30008 ft | 463 kts | 218° |
| 2026-04-28 17:39 | 25.83990 | -18.90978 | 30003 ft | 463 kts | 217° |
| 2026-04-28 17:40 | 25.75863 | -18.96801 | 30003 ft | 463 kts | 217° |
| 2026-04-28 17:40 | 25.70446 | -19.00665 | 30004 ft | 463 kts | 217° |
| 2026-04-28 17:41 | 25.65055 | -19.04501 | 30008 ft | 462 kts | 217° |
| 2026-04-28 17:41 | 25.59637 | -19.08351 | 30014 ft | 463 kts | 217° |
| 2026-04-28 17:42 | 25.54208 | -19.12205 | 30009 ft | 463 kts | 217° |
| 2026-04-28 17:42 | 25.48756 | -19.16070 | 30007 ft | 464 kts | 217° |
| 2026-04-28 17:43 | 25.43329 | -19.19912 | 30018 ft | 463 kts | 217° |
| 2026-04-28 17:43 | 25.37910 | -19.23746 | 30018 ft | 464 kts | 217° |
| 2026-04-28 17:44 | 25.32458 | -19.27598 | 30024 ft | 464 kts | 217° |
| 2026-04-28 17:44 | 25.27009 | -19.31445 | 30019 ft | 465 kts | 217° |
| 2026-04-28 17:45 | 25.21544 | -19.35297 | 30023 ft | 464 kts | 217° |
| 2026-04-28 17:45 | 25.16129 | -19.39111 | 30014 ft | 463 kts | 217° |
| 2026-04-28 17:46 | 25.10681 | -19.42944 | 30011 ft | 463 kts | 218° |
| 2026-04-28 17:46 | 25.05257 | -19.46756 | 30015 ft | 464 kts | 218° |
| 2026-04-28 17:47 | 24.99820 | -19.50573 | 30016 ft | 463 kts | 218° |
| 2026-04-28 17:47 | 24.94382 | -19.54385 | 30019 ft | 463 kts | 218° |
| 2026-04-28 17:48 | 24.88916 | -19.58214 | 30022 ft | 464 kts | 218° |
| 2026-04-28 17:48 | 24.83515 | -19.61990 | 30018 ft | 461 kts | 218° |
| 2026-04-28 17:49 | 24.78069 | -19.65798 | 30019 ft | 461 kts | 218° |
| 2026-04-28 17:49 | 24.72632 | -19.69594 | 30029 ft | 462 kts | 218° |
| 2026-04-28 17:50 | 24.67246 | -19.73350 | 30026 ft | 460 kts | 218° |
| 2026-04-28 17:50 | 24.61809 | -19.77138 | 30028 ft | 462 kts | 218° |
| 2026-04-28 17:51 | 24.56380 | -19.80916 | 30025 ft | 462 kts | 218° |
| 2026-04-28 17:51 | 24.50925 | -19.84708 | 30024 ft | 462 kts | 218° |
| 2026-04-28 17:52 | 24.45518 | -19.88464 | 30031 ft | 462 kts | 218° |
| 2026-04-28 17:52 | 24.37394 | -19.94099 | 30028 ft | 461 kts | 218° |
| 2026-04-28 17:53 | 24.31956 | -19.97866 | 30026 ft | 462 kts | 218° |
| 2026-04-28 17:53 | 24.26506 | -20.01638 | 30030 ft | 462 kts | 218° |
| 2026-04-28 17:54 | 24.21076 | -20.05391 | 30029 ft | 461 kts | 218° |
| 2026-04-28 17:54 | 24.15648 | -20.09140 | 30028 ft | 461 kts | 218° |
| 2026-04-28 17:55 | 24.10352 | -20.12794 | 30030 ft | 461 kts | 218° |
| 2026-04-28 17:55 | 24.04907 | -20.16546 | 30029 ft | 459 kts | 218° |
| 2026-04-28 17:56 | 23.99528 | -20.20250 | 30027 ft | 460 kts | 218° |
| 2026-04-28 17:56 | 23.94109 | -20.23977 | 30028 ft | 460 kts | 218° |
| 2026-04-28 17:57 | 23.88689 | -20.27702 | 30020 ft | 461 kts | 219° |
| 2026-04-28 17:57 | 23.83232 | -20.31448 | 30022 ft | 462 kts | 218° |
| 2026-04-28 17:58 | 23.77799 | -20.35174 | 30020 ft | 462 kts | 218° |
| 2026-04-28 17:58 | 23.72358 | -20.38900 | 30018 ft | 462 kts | 219° |
| 2026-04-28 17:59 | 23.66898 | -20.42637 | 30017 ft | 462 kts | 219° |
| 2026-04-28 17:59 | 23.61455 | -20.46358 | 30017 ft | 461 kts | 219° |
| 2026-04-28 18:00 | 23.55990 | -20.50091 | 30015 ft | 462 kts | 219° |
| 2026-04-28 18:00 | 23.50542 | -20.53810 | 30020 ft | 464 kts | 219° |
| 2026-04-28 18:01 | 23.45096 | -20.57520 | 30013 ft | 461 kts | 219° |
| 2026-04-28 18:01 | 23.39615 | -20.61254 | 30013 ft | 464 kts | 219° |
| 2026-04-28 18:02 | 23.34163 | -20.64963 | 30013 ft | 464 kts | 219° |
| 2026-04-28 18:02 | 23.28688 | -20.68683 | 30029 ft | 462 kts | 218° |
| 2026-04-28 18:03 | 23.23252 | -20.72375 | 30032 ft | 462 kts | 219° |
| 2026-04-28 18:03 | 23.17795 | -20.76076 | 30030 ft | 462 kts | 219° |
| 2026-04-28 18:04 | 23.12329 | -20.79779 | 30027 ft | 461 kts | 219° |
| 2026-04-28 18:04 | 23.06890 | -20.83463 | 30028 ft | 463 kts | 219° |
| 2026-04-28 18:05 | 23.02339 | -20.86540 | 30029 ft | 462 kts | 219° |
| 2026-04-28 18:05 | 22.95927 | -20.90873 | 30029 ft | 463 kts | 219° |
| 2026-04-28 18:06 | 22.90482 | -20.94550 | 30032 ft | 463 kts | 219° |
| 2026-04-28 18:06 | 22.84993 | -20.98251 | 30024 ft | 462 kts | 219° |
| 2026-04-28 18:07 | 22.79548 | -21.01920 | 30018 ft | 462 kts | 219° |
| 2026-04-28 18:07 | 22.74079 | -21.05602 | 30008 ft | 462 kts | 219° |
| 2026-04-28 18:08 | 22.68639 | -21.09260 | 30006 ft | 462 kts | 219° |
| 2026-04-28 18:08 | 22.63142 | -21.12954 | 30004 ft | 465 kts | 219° |
| 2026-04-28 18:09 | 22.57641 | -21.16645 | 30005 ft | 464 kts | 219° |
| 2026-04-28 18:09 | 22.52187 | -21.20302 | 30006 ft | 463 kts | 219° |
| 2026-04-28 18:10 | 22.46722 | -21.23963 | 30007 ft | 462 kts | 219° |
| 2026-04-28 18:10 | 22.41230 | -21.27640 | 30006 ft | 463 kts | 219° |
| 2026-04-28 18:11 | 22.35739 | -21.31311 | 30002 ft | 463 kts | 219° |
| 2026-04-28 18:11 | 22.30242 | -21.34984 | 30005 ft | 464 kts | 219° |
| 2026-04-28 18:12 | 22.24755 | -21.38646 | 30006 ft | 464 kts | 219° |
| 2026-04-28 18:12 | 22.19294 | -21.42287 | 30007 ft | 464 kts | 219° |
| 2026-04-28 18:13 | 22.13796 | -21.45950 | 30005 ft | 463 kts | 219° |
| 2026-04-28 18:13 | 22.08292 | -21.49613 | 30015 ft | 464 kts | 219° |
| 2026-04-28 18:14 | 22.02839 | -21.53239 | 30010 ft | 462 kts | 219° |
| 2026-04-28 18:14 | 21.97327 | -21.56901 | 30012 ft | 463 kts | 219° |
| 2026-04-28 18:15 | 21.91847 | -21.60538 | 30010 ft | 463 kts | 219° |
| 2026-04-28 18:15 | 21.86344 | -21.64187 | 30004 ft | 463 kts | 219° |
| 2026-04-28 18:16 | 21.80880 | -21.67807 | 30018 ft | 464 kts | 218° |
| 2026-04-28 18:16 | 21.75336 | -21.71476 | 30011 ft | 465 kts | 218° |
| 2026-04-28 18:17 | 21.69859 | -21.75098 | 30025 ft | 464 kts | 219° |
| 2026-04-28 18:17 | 21.64324 | -21.78756 | 30015 ft | 465 kts | 219° |
| 2026-04-28 18:18 | 21.58806 | -21.82398 | 30017 ft | 467 kts | 219° |
| 2026-04-28 18:18 | 21.54194 | -21.85440 | 30008 ft | 465 kts | 219° |
| 2026-04-28 18:19 | 21.47757 | -21.89681 | 30015 ft | 464 kts | 219° |
| 2026-04-28 18:19 | 21.42268 | -21.93295 | 30022 ft | 465 kts | 219° |
| 2026-04-28 18:20 | 21.36717 | -21.96946 | 30018 ft | 466 kts | 219° |
| 2026-04-28 18:20 | 21.31214 | -22.00561 | 30005 ft | 465 kts | 219° |
| 2026-04-28 18:21 | 21.25696 | -22.04185 | 30009 ft | 465 kts | 219° |
| 2026-04-28 18:21 | 21.20168 | -22.07811 | 30004 ft | 466 kts | 219° |
| 2026-04-28 18:22 | 21.14628 | -22.11442 | 30016 ft | 466 kts | 219° |
| 2026-04-28 18:22 | 21.09093 | -22.15066 | 30022 ft | 466 kts | 219° |
| 2026-04-28 18:23 | 21.03552 | -22.18690 | 30022 ft | 466 kts | 219° |
| 2026-04-28 18:23 | 20.98029 | -22.22301 | 30026 ft | 466 kts | 219° |
| 2026-04-28 18:24 | 20.94328 | -22.24718 | 30026 ft | 465 kts | 219° |
| 2026-04-28 18:24 | 20.86934 | -22.29542 | 30017 ft | 465 kts | 220° |
| 2026-04-28 18:25 | 20.81423 | -22.33137 | 30014 ft | 466 kts | 219° |
| 2026-04-28 18:26 | 20.73097 | -22.38559 | 30018 ft | 467 kts | 220° |
| 2026-04-28 18:26 | 20.67561 | -22.42159 | 30011 ft | 466 kts | 219° |
| 2026-04-28 18:27 | 20.62009 | -22.45768 | 30009 ft | 466 kts | 220° |
| 2026-04-28 18:27 | 20.56454 | -22.49376 | 30007 ft | 468 kts | 220° |
| 2026-04-28 18:28 | 20.50917 | -22.52966 | 30008 ft | 466 kts | 220° |
| 2026-04-28 18:28 | 20.45365 | -22.56566 | 30008 ft | 466 kts | 220° |
| 2026-04-28 18:29 | 20.39809 | -22.60165 | 30005 ft | 466 kts | 220° |
| 2026-04-28 18:29 | 20.34281 | -22.63743 | 30014 ft | 465 kts | 220° |
| 2026-04-28 18:30 | 20.28746 | -22.67322 | 30030 ft | 467 kts | 219° |
| 2026-04-28 18:30 | 20.23163 | -22.70930 | 30037 ft | 469 kts | 219° |
| 2026-04-28 18:31 | 20.17591 | -22.74525 | 30031 ft | 468 kts | 220° |
| 2026-04-28 18:31 | 20.12036 | -22.78109 | 30033 ft | 468 kts | 220° |
| 2026-04-28 18:32 | 20.06468 | -22.81696 | 30028 ft | 467 kts | 220° |
| 2026-04-28 18:32 | 20.00883 | -22.85290 | 30031 ft | 465 kts | 220° |
| 2026-04-28 18:33 | 19.95364 | -22.88844 | 30028 ft | 467 kts | 220° |
| 2026-04-28 18:33 | 19.89794 | -22.92424 | 30029 ft | 469 kts | 219° |
| 2026-04-28 18:34 | 19.84195 | -22.96019 | 30024 ft | 467 kts | 220° |
| 2026-04-28 18:34 | 19.78656 | -22.99574 | 30018 ft | 466 kts | 220° |
| 2026-04-28 18:35 | 19.73075 | -23.03154 | 30022 ft | 467 kts | 219° |
| 2026-04-28 18:35 | 19.67523 | -23.06710 | 30019 ft | 466 kts | 220° |
| 2026-04-28 18:36 | 19.61975 | -23.10264 | 30018 ft | 468 kts | 219° |
| 2026-04-28 18:36 | 19.56397 | -23.13829 | 30021 ft | 466 kts | 219° |
| 2026-04-28 18:37 | 19.50802 | -23.17407 | 30018 ft | 470 kts | 219° |
| 2026-04-28 18:37 | 19.45220 | -23.20970 | 30015 ft | 466 kts | 219° |
| 2026-04-28 18:38 | 19.39643 | -23.24530 | 30017 ft | 469 kts | 219° |
| 2026-04-28 18:38 | 19.34066 | -23.28084 | 30014 ft | 467 kts | 219° |
| 2026-04-28 18:39 | 19.28506 | -23.31626 | 30017 ft | 466 kts | 219° |
| 2026-04-28 18:39 | 19.22922 | -23.35183 | 30015 ft | 471 kts | 219° |
| 2026-04-28 18:40 | 19.17319 | -23.38742 | 30012 ft | 467 kts | 219° |
| 2026-04-28 18:40 | 19.11716 | -23.42306 | 30003 ft | 468 kts | 219° |
| 2026-04-28 18:41 | 19.06140 | -23.45846 | 30016 ft | 469 kts | 219° |
| 2026-04-28 18:41 | 19.00565 | -23.49382 | 30015 ft | 467 kts | 219° |
| 2026-04-28 18:42 | 18.94960 | -23.52937 | 30012 ft | 467 kts | 219° |
| 2026-04-28 18:42 | 18.89372 | -23.56477 | 30011 ft | 467 kts | 219° |
| 2026-04-28 18:43 | 18.83818 | -23.59993 | 30009 ft | 468 kts | 219° |
| 2026-04-28 18:43 | 18.78237 | -23.63523 | 30003 ft | 469 kts | 218° |
| 2026-04-28 18:44 | 18.72629 | -23.67067 | 30025 ft | 467 kts | 218° |
| 2026-04-28 18:44 | 18.64265 | -23.72348 | 30019 ft | 469 kts | 218° |
| 2026-04-28 18:45 | 18.58653 | -23.75888 | 30015 ft | 468 kts | 218° |
| 2026-04-28 18:45 | 18.53070 | -23.79406 | 30014 ft | 466 kts | 218° |
| 2026-04-28 18:46 | 18.47488 | -23.82923 | 30006 ft | 469 kts | 218° |
| 2026-04-28 18:46 | 18.41874 | -23.86455 | 30002 ft | 469 kts | 218° |
| 2026-04-28 18:47 | 18.36273 | -23.89978 | 30008 ft | 469 kts | 218° |
| 2026-04-28 18:47 | 18.30710 | -23.93472 | 30014 ft | 467 kts | 218° |
| 2026-04-28 18:48 | 18.25125 | -23.96979 | 30007 ft | 467 kts | 218° |
| 2026-04-28 18:48 | 18.19537 | -24.00486 | 30010 ft | 468 kts | 218° |
| 2026-04-28 18:49 | 18.15799 | -24.02829 | 30009 ft | 467 kts | 217° |
| 2026-04-28 18:49 | 18.08345 | -24.07501 | 30010 ft | 469 kts | 218° |
| 2026-04-28 18:50 | 18.02729 | -24.11015 | 30007 ft | 470 kts | 217° |
| 2026-04-28 18:50 | 17.97124 | -24.14521 | 30005 ft | 467 kts | 217° |
| 2026-04-28 18:51 | 17.91537 | -24.18014 | 30004 ft | 469 kts | 217° |
| 2026-04-28 18:51 | 17.85880 | -24.21547 | 29999 ft | 470 kts | 217° |
| 2026-04-28 18:52 | 17.80275 | -24.25045 | 29997 ft | 468 kts | 217° |
| 2026-04-28 18:52 | 17.74657 | -24.28549 | 30000 ft | 470 kts | 217° |
| 2026-04-28 18:53 | 17.69028 | -24.32056 | 29998 ft | 470 kts | 217° |
| 2026-04-28 18:53 | 17.63408 | -24.35557 | 29997 ft | 470 kts | 217° |
| 2026-04-28 18:54 | 17.57797 | -24.39050 | 29994 ft | 471 kts | 217° |
| 2026-04-28 18:54 | 17.52170 | -24.42549 | 30034 ft | 468 kts | 217° |
| 2026-04-28 18:55 | 17.49386 | -24.44278 | 30282 ft | 464 kts | 217° |
| 2026-04-28 18:55 | 17.47545 | -24.45423 | 30435 ft | 463 kts | 217° |
| 2026-04-28 18:55 | 17.43833 | -24.47729 | 30750 ft | 460 kts | 217° |
| 2026-04-28 18:55 | 17.41108 | -24.49422 | 30981 ft | 459 kts | 217° |
| 2026-04-28 18:56 | 17.38374 | -24.51119 | 31217 ft | 457 kts | 217° |
| 2026-04-28 18:56 | 17.35618 | -24.52829 | 31455 ft | 455 kts | 217° |
| 2026-04-28 18:56 | 17.32917 | -24.54506 | 31689 ft | 453 kts | 217° |
| 2026-04-28 18:56 | 17.30189 | -24.56196 | 31924 ft | 452 kts | 217° |
| 2026-04-28 18:57 | 17.24744 | -24.59574 | 31998 ft | 457 kts | 216° |
| 2026-04-28 18:57 | 17.19317 | -24.62933 | 31993 ft | 451 kts | 217° |
| 2026-04-28 18:58 | 17.13973 | -24.66239 | 32004 ft | 442 kts | 216° |
| 2026-04-28 18:58 | 17.08643 | -24.69539 | 32009 ft | 444 kts | 216° |
| 2026-04-28 18:59 | 17.03306 | -24.72838 | 32009 ft | 446 kts | 216° |
| 2026-04-28 18:59 | 16.98004 | -24.76112 | 32003 ft | 443 kts | 216° |
| 2026-04-28 19:00 | 16.92682 | -24.79397 | 32010 ft | 444 kts | 216° |
| 2026-04-28 19:00 | 16.87357 | -24.82683 | 32013 ft | 445 kts | 216° |
| 2026-04-28 19:01 | 16.82020 | -24.85973 | 32008 ft | 445 kts | 216° |
| 2026-04-28 19:01 | 16.76668 | -24.89270 | 32006 ft | 446 kts | 216° |
| 2026-04-28 19:02 | 16.71314 | -24.92565 | 32006 ft | 447 kts | 216° |
| 2026-04-28 19:02 | 16.65978 | -24.95848 | 32001 ft | 447 kts | 216° |
| 2026-04-28 19:03 | 16.60593 | -24.99159 | 31999 ft | 448 kts | 215° |
| 2026-04-28 19:03 | 16.55203 | -25.02471 | 32000 ft | 450 kts | 215° |
| 2026-04-28 19:04 | 16.49835 | -25.05766 | 31997 ft | 448 kts | 215° |
| 2026-04-28 19:04 | 16.44459 | -25.09066 | 31994 ft | 447 kts | 215° |
| 2026-04-28 19:05 | 16.39109 | -25.12346 | 31995 ft | 448 kts | 215° |
| 2026-04-28 19:05 | 16.33719 | -25.15649 | 31997 ft | 449 kts | 215° |
| 2026-04-28 19:06 | 16.29227 | -25.18400 | 32002 ft | 448 kts | 215° |
| 2026-04-28 19:06 | 16.22949 | -25.22243 | 32005 ft | 448 kts | 215° |
| 2026-04-28 19:07 | 16.17576 | -25.25530 | 32008 ft | 449 kts | 215° |
| 2026-04-28 19:07 | 16.12156 | -25.28843 | 32007 ft | 450 kts | 214° |
| 2026-04-28 19:08 | 16.06713 | -25.32167 | 32006 ft | 450 kts | 214° |
| 2026-04-28 19:08 | 16.01342 | -25.35446 | 32004 ft | 451 kts | 214° |
| 2026-04-28 19:09 | 15.95904 | -25.38763 | 32002 ft | 449 kts | 214° |
| 2026-04-28 19:09 | 15.90525 | -25.42042 | 32005 ft | 449 kts | 214° |
| 2026-04-28 19:10 | 15.85137 | -25.45326 | 32001 ft | 450 kts | 214° |
| 2026-04-28 19:10 | 15.79711 | -25.48630 | 31998 ft | 449 kts | 214° |
| 2026-04-28 19:11 | 15.74335 | -25.51902 | 31995 ft | 450 kts | 214° |
| 2026-04-28 19:11 | 15.68896 | -25.55210 | 31993 ft | 452 kts | 214° |
| 2026-04-28 19:12 | 15.63501 | -25.58488 | 31994 ft | 450 kts | 214° |
| 2026-04-28 19:12 | 15.58094 | -25.61773 | 31997 ft | 450 kts | 214° |
| 2026-04-28 19:13 | 15.52684 | -25.65056 | 31999 ft | 451 kts | 214° |
| 2026-04-28 19:13 | 15.47238 | -25.68361 | 32007 ft | 452 kts | 214° |
| 2026-04-28 19:14 | 15.41801 | -25.71657 | 32008 ft | 451 kts | 214° |
| 2026-04-28 19:14 | 15.36415 | -25.74920 | 32007 ft | 450 kts | 214° |
| 2026-04-28 19:15 | 15.30976 | -25.78214 | 32005 ft | 451 kts | 213° |
| 2026-04-28 19:15 | 15.27345 | -25.80411 | 32008 ft | 452 kts | 213° |
| 2026-04-28 19:16 | 15.20136 | -25.84771 | 32010 ft | 445 kts | 214° |
| 2026-04-28 19:16 | 15.14812 | -25.87991 | 32009 ft | 444 kts | 213° |
| 2026-04-28 19:17 | 15.09450 | -25.91230 | 32011 ft | 446 kts | 213° |
| 2026-04-28 19:17 | 15.04096 | -25.94463 | 32008 ft | 447 kts | 213° |
| 2026-04-28 19:18 | 14.98725 | -25.97703 | 32006 ft | 446 kts | 213° |
| 2026-04-28 19:18 | 14.93355 | -26.00941 | 32007 ft | 446 kts | 213° |
| 2026-04-28 19:19 | 14.87984 | -26.04179 | 32001 ft | 447 kts | 213° |
| 2026-04-28 19:19 | 14.82602 | -26.07420 | 32004 ft | 446 kts | 213° |
| 2026-04-28 19:20 | 14.78138 | -26.10108 | 31994 ft | 446 kts | 213° |
| 2026-04-28 19:20 | 14.71850 | -26.13891 | 31995 ft | 449 kts | 213° |
| 2026-04-28 19:21 | 14.66483 | -26.17118 | 31991 ft | 444 kts | 213° |
| 2026-04-28 19:21 | 14.61183 | -26.20303 | 31987 ft | 438 kts | 213° |
| 2026-04-28 19:22 | 14.57679 | -26.22407 | 31987 ft | 433 kts | 213° |
| 2026-04-28 19:22 | 14.50726 | -26.26584 | 31994 ft | 437 kts | 213° |
| 2026-04-28 19:23 | 14.45393 | -26.29783 | 31995 ft | 447 kts | 213° |
| 2026-04-28 19:23 | 14.39980 | -26.33028 | 31997 ft | 456 kts | 213° |
| 2026-04-28 19:24 | 14.34438 | -26.36348 | 31997 ft | 464 kts | 213° |
| 2026-04-28 19:24 | 14.28854 | -26.39689 | 31989 ft | 458 kts | 213° |
| 2026-04-28 19:25 | 14.23443 | -26.42926 | 31984 ft | 441 kts | 213° |
| 2026-04-28 19:25 | 14.18138 | -26.46101 | 31991 ft | 444 kts | 213° |
| 2026-04-28 19:26 | 14.12731 | -26.49334 | 31988 ft | 451 kts | 213° |
| 2026-04-28 19:26 | 14.07651 | -26.52368 | 31980 ft | 448 kts | 213° |
| 2026-04-28 19:27 | 14.02233 | -26.55603 | 31987 ft | 446 kts | 213° |
| 2026-04-28 19:27 | 13.96858 | -26.58811 | 31984 ft | 447 kts | 213° |
| 2026-04-28 19:28 | 13.91484 | -26.62017 | 31982 ft | 447 kts | 213° |
| 2026-04-28 19:28 | 13.86082 | -26.65236 | 31981 ft | 446 kts | 213° |
| 2026-04-28 19:29 | 13.82517 | -26.67361 | 31986 ft | 447 kts | 213° |
| 2026-04-28 19:29 | 13.75321 | -26.71646 | 31983 ft | 449 kts | 213° |
| 2026-04-28 19:30 | 13.69896 | -26.74874 | 31982 ft | 448 kts | 212° |
| 2026-04-28 19:30 | 13.64491 | -26.78090 | 31986 ft | 449 kts | 212° |
| 2026-04-28 19:31 | 13.59092 | -26.81299 | 31986 ft | 449 kts | 212° |
| 2026-04-28 19:31 | 13.53688 | -26.84510 | 31985 ft | 448 kts | 212° |
| 2026-04-28 19:32 | 13.48267 | -26.87730 | 31983 ft | 448 kts | 212° |
| 2026-04-28 19:32 | 13.42857 | -26.90941 | 31988 ft | 449 kts | 212° |
| 2026-04-28 19:33 | 13.37464 | -26.94140 | 31989 ft | 450 kts | 212° |
| 2026-04-28 19:33 | 13.32024 | -26.97366 | 31985 ft | 450 kts | 212° |
| 2026-04-28 19:34 | 13.26579 | -27.00593 | 31990 ft | 450 kts | 212° |
| 2026-04-28 19:34 | 13.21155 | -27.03805 | 31986 ft | 450 kts | 212° |
| 2026-04-28 19:35 | 13.15730 | -27.07017 | 31988 ft | 450 kts | 212° |
| 2026-04-28 19:35 | 13.10301 | -27.10230 | 31988 ft | 449 kts | 212° |
| 2026-04-28 19:36 | 13.04898 | -27.13425 | 31991 ft | 449 kts | 212° |
| 2026-04-28 19:36 | 12.99458 | -27.16640 | 31987 ft | 450 kts | 212° |
| 2026-04-28 19:37 | 12.95846 | -27.18774 | 31982 ft | 450 kts | 212° |
| 2026-04-28 19:37 | 12.88598 | -27.23054 | 31988 ft | 452 kts | 212° |
| 2026-04-28 19:38 | 12.83132 | -27.26281 | 31988 ft | 451 kts | 212° |
| 2026-04-28 19:38 | 12.77710 | -27.29479 | 31986 ft | 450 kts | 212° |
| 2026-04-28 19:39 | 12.72254 | -27.32696 | 31989 ft | 451 kts | 212° |
| 2026-04-28 19:39 | 12.66793 | -27.35914 | 31984 ft | 452 kts | 212° |
| 2026-04-28 19:40 | 12.61374 | -27.39106 | 31985 ft | 452 kts | 212° |
| 2026-04-28 19:40 | 12.55906 | -27.42325 | 31986 ft | 453 kts | 212° |
| 2026-04-28 19:41 | 12.50431 | -27.45547 | 31985 ft | 452 kts | 212° |
| 2026-04-28 19:41 | 12.44964 | -27.48762 | 31984 ft | 452 kts | 212° |
| 2026-04-28 19:42 | 12.39495 | -27.51977 | 31983 ft | 453 kts | 212° |
| 2026-04-28 19:42 | 12.34961 | -27.54641 | 31985 ft | 453 kts | 212° |
| 2026-04-28 19:43 | 12.28558 | -27.58402 | 31984 ft | 453 kts | 212° |
| 2026-04-28 19:43 | 12.23099 | -27.61606 | 31985 ft | 453 kts | 212° |
| 2026-04-28 19:44 | 12.17627 | -27.64817 | 31984 ft | 454 kts | 212° |
| 2026-04-28 19:44 | 12.12108 | -27.68053 | 31985 ft | 455 kts | 212° |
| 2026-04-28 19:45 | 12.06611 | -27.71276 | 31983 ft | 454 kts | 212° |
| 2026-04-28 19:45 | 12.01164 | -27.74467 | 32050 ft | 451 kts | 212° |
| 2026-04-28 19:46 | 11.98439 | -27.76062 | 32271 ft | 449 kts | 212° |
| 2026-04-28 19:46 | 11.95718 | -27.77655 | 32481 ft | 449 kts | 212° |
| 2026-04-28 19:46 | 11.90327 | -27.80812 | 32766 ft | 455 kts | 212° |
| 2026-04-28 19:47 | 11.87591 | -27.82412 | 33015 ft | 453 kts | 212° |
| 2026-04-28 19:47 | 11.85763 | -27.83482 | 32958 ft | 455 kts | 212° |
| 2026-04-28 19:47 | 11.79367 | -27.87222 | 32982 ft | 449 kts | 212° |
| 2026-04-28 19:48 | 11.73952 | -27.90387 | 32974 ft | 449 kts | 212° |
| 2026-04-28 19:48 | 11.68501 | -27.93572 | 32967 ft | 451 kts | 212° |
| 2026-04-28 19:49 | 11.63044 | -27.96759 | 32967 ft | 451 kts | 212° |
| 2026-04-28 19:49 | 11.57620 | -27.99925 | 32967 ft | 451 kts | 212° |
| 2026-04-28 19:50 | 11.49429 | -28.04703 | 32967 ft | 451 kts | 212° |
| 2026-04-28 19:51 | 11.43983 | -28.07878 | 32965 ft | 451 kts | 212° |
| 2026-04-28 19:51 | 11.39438 | -28.10527 | 32965 ft | 450 kts | 212° |
| 2026-04-28 19:52 | 11.33094 | -28.14224 | 32965 ft | 449 kts | 212° |
| 2026-04-28 19:52 | 11.27659 | -28.17388 | 32967 ft | 451 kts | 211° |
| 2026-04-28 19:53 | 11.22172 | -28.20581 | 32963 ft | 451 kts | 212° |
| 2026-04-28 19:53 | 11.16738 | -28.23742 | 32964 ft | 450 kts | 212° |
| 2026-04-28 19:54 | 11.12224 | -28.26367 | 32964 ft | 449 kts | 211° |
| 2026-04-28 19:54 | 11.05872 | -28.30060 | 32962 ft | 448 kts | 211° |
| 2026-04-28 19:55 | 11.00470 | -28.33198 | 32966 ft | 449 kts | 211° |
| 2026-04-28 19:55 | 10.95036 | -28.36354 | 32965 ft | 450 kts | 211° |
| 2026-04-28 19:56 | 10.90464 | -28.39008 | 32966 ft | 450 kts | 211° |
| 2026-04-28 19:56 | 10.84142 | -28.42677 | 32966 ft | 450 kts | 211° |
| 2026-04-28 19:57 | 10.78710 | -28.45828 | 32965 ft | 449 kts | 211° |
| 2026-04-28 19:57 | 10.73259 | -28.48988 | 32963 ft | 448 kts | 211° |
| 2026-04-28 19:58 | 10.67838 | -28.52129 | 32965 ft | 448 kts | 211° |
| 2026-04-28 19:58 | 10.62420 | -28.55268 | 32965 ft | 449 kts | 211° |
| 2026-04-28 19:59 | 10.56987 | -28.58414 | 32967 ft | 450 kts | 211° |
| 2026-04-28 19:59 | 10.51546 | -28.61563 | 32964 ft | 449 kts | 211° |
| 2026-04-28 20:00 | 10.46098 | -28.64716 | 32963 ft | 450 kts | 211° |
| 2026-04-28 20:00 | 10.40646 | -28.67868 | 32965 ft | 451 kts | 211° |
| 2026-04-28 20:01 | 10.35198 | -28.71018 | 32963 ft | 450 kts | 211° |
| 2026-04-28 20:01 | 10.29754 | -28.74164 | 32964 ft | 449 kts | 211° |
| 2026-04-28 20:02 | 10.24329 | -28.77297 | 32962 ft | 449 kts | 211° |
| 2026-04-28 20:02 | 10.18855 | -28.80458 | 32956 ft | 450 kts | 210° |
| 2026-04-28 20:03 | 10.13427 | -28.83591 | 32944 ft | 449 kts | 211° |
| 2026-04-28 20:03 | 10.07988 | -28.86728 | 32946 ft | 449 kts | 211° |
| 2026-04-28 20:04 | 10.02513 | -28.89887 | 32949 ft | 450 kts | 211° |
| 2026-04-28 20:04 | 9.97076 | -28.93021 | 32945 ft | 450 kts | 210° |
| 2026-04-28 20:05 | 9.91629 | -28.96160 | 32945 ft | 449 kts | 210° |
| 2026-04-28 20:05 | 9.86199 | -28.99288 | 32946 ft | 450 kts | 210° |
| 2026-04-28 20:06 | 9.80741 | -29.02431 | 32945 ft | 450 kts | 210° |
| 2026-04-28 20:06 | 9.75287 | -29.05570 | 32946 ft | 450 kts | 210° |
| 2026-04-28 20:07 | 9.69821 | -29.08714 | 32946 ft | 450 kts | 210° |
| 2026-04-28 20:07 | 9.64383 | -29.11842 | 32948 ft | 450 kts | 210° |
| 2026-04-28 20:08 | 9.58911 | -29.14988 | 32947 ft | 450 kts | 210° |
| 2026-04-28 20:08 | 9.53449 | -29.18127 | 32950 ft | 451 kts | 210° |
| 2026-04-28 20:09 | 9.47987 | -29.21264 | 32951 ft | 451 kts | 210° |
| 2026-04-28 20:09 | 9.42556 | -29.24383 | 32955 ft | 451 kts | 210° |
| 2026-04-28 20:10 | 9.37087 | -29.27523 | 32952 ft | 451 kts | 210° |
| 2026-04-28 20:10 | 9.31594 | -29.30675 | 32954 ft | 450 kts | 210° |
| 2026-04-28 20:11 | 9.26160 | -29.33792 | 32954 ft | 451 kts | 210° |
| 2026-04-28 20:11 | 9.20689 | -29.36929 | 32950 ft | 451 kts | 210° |
| 2026-04-28 20:12 | 9.15218 | -29.40065 | 32956 ft | 452 kts | 210° |
| 2026-04-28 20:12 | 9.09730 | -29.43209 | 32962 ft | 451 kts | 210° |
| 2026-04-28 20:13 | 9.04288 | -29.46327 | 32968 ft | 451 kts | 210° |
| 2026-04-28 20:13 | 8.98795 | -29.49472 | 32964 ft | 450 kts | 210° |
| 2026-04-28 20:14 | 8.93352 | -29.52588 | 32965 ft | 449 kts | 210° |
| 2026-04-28 20:14 | 8.87915 | -29.55699 | 32970 ft | 451 kts | 210° |
| 2026-04-28 20:15 | 8.82422 | -29.58841 | 32967 ft | 452 kts | 210° |
| 2026-04-28 20:15 | 8.76939 | -29.61976 | 32965 ft | 450 kts | 210° |
| 2026-04-28 20:16 | 8.72403 | -29.64569 | 32968 ft | 450 kts | 210° |
| 2026-04-28 20:16 | 8.66020 | -29.68216 | 32963 ft | 450 kts | 210° |
| 2026-04-28 20:17 | 8.60579 | -29.71325 | 32967 ft | 450 kts | 210° |
| 2026-04-28 20:17 | 8.55116 | -29.74444 | 32962 ft | 449 kts | 209° |
| 2026-04-28 20:18 | 8.49677 | -29.77549 | 32964 ft | 449 kts | 209° |
| 2026-04-28 20:18 | 8.44247 | -29.80647 | 32963 ft | 450 kts | 209° |
| 2026-04-28 20:19 | 8.38798 | -29.83756 | 32966 ft | 450 kts | 209° |
| 2026-04-28 20:19 | 8.33318 | -29.86881 | 32967 ft | 450 kts | 209° |
| 2026-04-28 20:20 | 8.27862 | -29.89991 | 32964 ft | 449 kts | 209° |
| 2026-04-28 20:20 | 8.22401 | -29.93103 | 32967 ft | 450 kts | 209° |
| 2026-04-28 20:21 | 8.16956 | -29.96205 | 32965 ft | 450 kts | 209° |
| 2026-04-28 20:21 | 8.11493 | -29.99316 | 32966 ft | 449 kts | 209° |
| 2026-04-28 20:22 | 8.06050 | -30.02415 | 32963 ft | 447 kts | 209° |
| 2026-04-28 20:22 | 8.00619 | -30.05507 | 32968 ft | 451 kts | 209° |
| 2026-04-28 20:23 | 7.96050 | -30.08106 | 32966 ft | 453 kts | 209° |
| 2026-04-28 20:23 | 7.89652 | -30.11746 | 32962 ft | 450 kts | 209° |
| 2026-04-28 20:24 | 7.84178 | -30.14859 | 32963 ft | 451 kts | 209° |
| 2026-04-28 20:24 | 7.78730 | -30.17956 | 32961 ft | 451 kts | 209° |
| 2026-04-28 20:25 | 7.73251 | -30.21069 | 32954 ft | 451 kts | 209° |
| 2026-04-28 20:25 | 7.67761 | -30.24188 | 32948 ft | 451 kts | 208° |
| 2026-04-28 20:26 | 7.62295 | -30.27293 | 32947 ft | 451 kts | 208° |
| 2026-04-28 20:26 | 7.56824 | -30.30399 | 32947 ft | 450 kts | 208° |
| 2026-04-28 20:27 | 7.51382 | -30.33488 | 32947 ft | 451 kts | 208° |
| 2026-04-28 20:27 | 7.46800 | -30.36088 | 32946 ft | 451 kts | 208° |
| 2026-04-28 20:28 | 7.40425 | -30.39704 | 32947 ft | 450 kts | 208° |
| 2026-04-28 20:28 | 7.34959 | -30.42805 | 32947 ft | 450 kts | 208° |
| 2026-04-28 20:29 | 7.29501 | -30.45898 | 32946 ft | 450 kts | 208° |
| 2026-04-28 20:29 | 7.24052 | -30.48987 | 32945 ft | 450 kts | 208° |
| 2026-04-28 20:30 | 7.18574 | -30.52091 | 32946 ft | 450 kts | 208° |
| 2026-04-28 20:30 | 7.13091 | -30.55197 | 32945 ft | 450 kts | 208° |
| 2026-04-28 20:31 | 7.07625 | -30.58293 | 32946 ft | 451 kts | 208° |
| 2026-04-28 20:31 | 7.03071 | -30.60871 | 32946 ft | 450 kts | 208° |
| 2026-04-28 20:32 | 6.96690 | -30.64483 | 32945 ft | 450 kts | 208° |
| 2026-04-28 20:32 | 6.91215 | -30.67581 | 32944 ft | 450 kts | 208° |
| 2026-04-28 20:33 | 6.86656 | -30.70160 | 32948 ft | 450 kts | 208° |
| 2026-04-28 20:33 | 6.80309 | -30.73750 | 32946 ft | 449 kts | 208° |
| 2026-04-28 20:34 | 6.74873 | -30.76824 | 32947 ft | 449 kts | 208° |
| 2026-04-28 20:34 | 6.69417 | -30.79908 | 32947 ft | 450 kts | 208° |
| 2026-04-28 20:35 | 6.63917 | -30.83016 | 32947 ft | 450 kts | 208° |
| 2026-04-28 20:35 | 6.58470 | -30.86094 | 32947 ft | 449 kts | 208° |
| 2026-04-28 20:36 | 6.53911 | -30.88668 | 32951 ft | 449 kts | 208° |
| 2026-04-28 20:36 | 6.48453 | -30.91750 | 32959 ft | 449 kts | 208° |
| 2026-04-28 20:37 | 6.43026 | -30.94815 | 32967 ft | 449 kts | 208° |
| 2026-04-28 20:37 | 6.37564 | -30.97898 | 32967 ft | 449 kts | 208° |
| 2026-04-28 20:38 | 6.31221 | -31.01477 | 32965 ft | 449 kts | 208° |
| 2026-04-28 20:38 | 6.25730 | -31.04574 | 32965 ft | 449 kts | 208° |
| 2026-04-28 20:39 | 6.21180 | -31.07140 | 32965 ft | 449 kts | 208° |
| 2026-04-28 20:39 | 6.15753 | -31.10201 | 32965 ft | 448 kts | 208° |
| 2026-04-28 20:40 | 6.10294 | -31.13278 | 32966 ft | 447 kts | 208° |
| 2026-04-28 20:40 | 6.04845 | -31.16349 | 32966 ft | 449 kts | 208° |
| 2026-04-28 20:41 | 5.99403 | -31.19416 | 32962 ft | 449 kts | 208° |
| 2026-04-28 20:41 | 5.93944 | -31.22491 | 32948 ft | 449 kts | 208° |
| 2026-04-28 20:42 | 5.88474 | -31.25572 | 32952 ft | 450 kts | 208° |
| 2026-04-28 20:42 | 5.83000 | -31.28654 | 32950 ft | 450 kts | 207° |
| 2026-04-28 20:43 | 5.77545 | -31.31725 | 32952 ft | 451 kts | 208° |
| 2026-04-28 20:43 | 5.72087 | -31.34797 | 32952 ft | 449 kts | 208° |
| 2026-04-28 20:44 | 5.66618 | -31.37875 | 32951 ft | 449 kts | 208° |
| 2026-04-28 20:44 | 5.61158 | -31.40947 | 32947 ft | 451 kts | 208° |
| 2026-04-28 20:45 | 5.55651 | -31.44045 | 32947 ft | 451 kts | 208° |
| 2026-04-28 20:45 | 5.50205 | -31.47107 | 32948 ft | 451 kts | 208° |
| 2026-04-28 20:46 | 5.44709 | -31.50197 | 32948 ft | 452 kts | 208° |
| 2026-04-28 20:46 | 5.39203 | -31.53291 | 32947 ft | 452 kts | 208° |
| 2026-04-28 20:47 | 5.33696 | -31.56387 | 32947 ft | 452 kts | 208° |
| 2026-04-28 20:47 | 5.28194 | -31.59479 | 32947 ft | 452 kts | 208° |
| 2026-04-28 20:48 | 5.22728 | -31.62549 | 32949 ft | 452 kts | 208° |
| 2026-04-28 20:48 | 5.17221 | -31.65608 | 32948 ft | 453 kts | 207° |
| 2026-04-28 20:49 | 5.11693 | -31.68669 | 32948 ft | 453 kts | 207° |
| 2026-04-28 20:49 | 5.06146 | -31.71741 | 32945 ft | 453 kts | 207° |
| 2026-04-28 20:50 | 5.00631 | -31.74794 | 32945 ft | 453 kts | 207° |
| 2026-04-28 20:50 | 4.95083 | -31.77866 | 32945 ft | 454 kts | 207° |
| 2026-04-28 20:51 | 4.89573 | -31.80915 | 32945 ft | 454 kts | 207° |
| 2026-04-28 20:51 | 4.84028 | -31.83983 | 32948 ft | 454 kts | 207° |
| 2026-04-28 20:52 | 4.78465 | -31.87061 | 32944 ft | 453 kts | 207° |
| 2026-04-28 20:52 | 4.72952 | -31.90109 | 32948 ft | 454 kts | 207° |
| 2026-04-28 20:53 | 4.64633 | -31.94710 | 32941 ft | 454 kts | 207° |
| 2026-04-28 20:53 | 4.59091 | -31.97774 | 32942 ft | 455 kts | 207° |
| 2026-04-28 20:54 | 4.53549 | -32.00838 | 32936 ft | 455 kts | 207° |
| 2026-04-28 20:54 | 4.47984 | -32.03912 | 32934 ft | 454 kts | 207° |
| 2026-04-28 20:55 | 4.42455 | -32.06967 | 32934 ft | 454 kts | 207° |
| 2026-04-28 20:55 | 4.36918 | -32.10027 | 32933 ft | 454 kts | 207° |
| 2026-04-28 20:56 | 4.31377 | -32.13088 | 32931 ft | 454 kts | 207° |
| 2026-04-28 20:56 | 4.25831 | -32.16151 | 32930 ft | 455 kts | 207° |
| 2026-04-28 20:57 | 4.20278 | -32.19217 | 32936 ft | 455 kts | 207° |
| 2026-04-28 20:57 | 4.14708 | -32.22292 | 32946 ft | 457 kts | 207° |
| 2026-04-28 20:58 | 4.09100 | -32.25388 | 32945 ft | 457 kts | 207° |
| 2026-04-28 20:58 | 4.03552 | -32.28450 | 32946 ft | 455 kts | 207° |
| 2026-04-28 20:59 | 3.98000 | -32.31514 | 32948 ft | 454 kts | 207° |
| 2026-04-28 20:59 | 3.92444 | -32.34580 | 32945 ft | 455 kts | 207° |
| 2026-04-28 21:00 | 3.86918 | -32.37628 | 32951 ft | 455 kts | 207° |
| 2026-04-28 21:00 | 3.81336 | -32.40706 | 32948 ft | 457 kts | 207° |
| 2026-04-28 21:01 | 3.75749 | -32.43788 | 32945 ft | 457 kts | 207° |
| 2026-04-28 21:01 | 3.70193 | -32.46852 | 32948 ft | 456 kts | 207° |
| 2026-04-28 21:02 | 3.64629 | -32.49920 | 32947 ft | 455 kts | 206° |
| 2026-04-28 21:02 | 3.59096 | -32.52969 | 32951 ft | 453 kts | 206° |
| 2026-04-28 21:03 | 3.53586 | -32.56006 | 32952 ft | 452 kts | 206° |
| 2026-04-28 21:03 | 3.48037 | -32.59064 | 32949 ft | 452 kts | 206° |
| 2026-04-28 21:04 | 3.42528 | -32.62100 | 32946 ft | 452 kts | 206° |
| 2026-04-28 21:04 | 3.37011 | -32.65140 | 32947 ft | 451 kts | 206° |
| 2026-04-28 21:05 | 3.31515 | -32.68168 | 32942 ft | 451 kts | 206° |
| 2026-04-28 21:05 | 3.26007 | -32.71202 | 32942 ft | 451 kts | 206° |
| 2026-04-28 21:06 | 3.20494 | -32.74238 | 32942 ft | 451 kts | 206° |
| 2026-04-28 21:06 | 3.14994 | -32.77267 | 32943 ft | 451 kts | 206° |
| 2026-04-28 21:07 | 3.09486 | -32.80300 | 32936 ft | 451 kts | 205° |
| 2026-04-28 21:07 | 3.03971 | -32.83337 | 32924 ft | 451 kts | 205° |
| 2026-04-28 21:08 | 2.98487 | -32.86356 | 32921 ft | 452 kts | 205° |
| 2026-04-28 21:08 | 2.92971 | -32.89391 | 32920 ft | 453 kts | 205° |
| 2026-04-28 21:09 | 2.90177 | -32.90929 | 33161 ft | 455 kts | 205° |
| 2026-04-28 21:09 | 2.87428 | -32.92442 | 33607 ft | 452 kts | 205° |
| 2026-04-28 21:09 | 2.84644 | -32.93975 | 33936 ft | 451 kts | 205° |
| 2026-04-28 21:09 | 2.81896 | -32.95486 | 33906 ft | 453 kts | 206° |
| 2026-04-28 21:10 | 2.76420 | -32.98501 | 33920 ft | 448 kts | 206° |
| 2026-04-28 21:10 | 2.70939 | -33.01516 | 33928 ft | 448 kts | 206° |
| 2026-04-28 21:11 | 2.65463 | -33.04529 | 33927 ft | 449 kts | 206° |
| 2026-04-28 21:11 | 2.59987 | -33.07542 | 33925 ft | 449 kts | 206° |
| 2026-04-28 21:12 | 2.54490 | -33.10565 | 33927 ft | 449 kts | 206° |
| 2026-04-28 21:12 | 2.49025 | -33.13570 | 33927 ft | 449 kts | 206° |
| 2026-04-28 21:13 | 2.43538 | -33.16588 | 33928 ft | 449 kts | 206° |
| 2026-04-28 21:13 | 2.38053 | -33.19604 | 33935 ft | 449 kts | 206° |
| 2026-04-28 21:14 | 2.32594 | -33.22606 | 33931 ft | 450 kts | 206° |
| 2026-04-28 21:14 | 2.27074 | -33.25641 | 33932 ft | 450 kts | 206° |
| 2026-04-28 21:15 | 2.21612 | -33.28643 | 33930 ft | 449 kts | 206° |
| 2026-04-28 21:15 | 2.16092 | -33.31678 | 33926 ft | 449 kts | 206° |
| 2026-04-28 21:16 | 2.10608 | -33.34692 | 33932 ft | 449 kts | 206° |
| 2026-04-28 21:16 | 2.05148 | -33.37693 | 33938 ft | 449 kts | 206° |
| 2026-04-28 21:17 | 1.99673 | -33.40702 | 33942 ft | 450 kts | 206° |
| 2026-04-28 21:17 | 1.94173 | -33.43724 | 33945 ft | 451 kts | 207° |
| 2026-04-28 21:18 | 1.88630 | -33.46770 | 33949 ft | 452 kts | 207° |
| 2026-04-28 21:18 | 1.83128 | -33.49794 | 33949 ft | 451 kts | 206° |
| 2026-04-28 21:19 | 1.77598 | -33.52832 | 33947 ft | 450 kts | 206° |
| 2026-04-28 21:19 | 1.72124 | -33.55839 | 33951 ft | 451 kts | 207° |
| 2026-04-28 21:20 | 1.66583 | -33.58882 | 33952 ft | 452 kts | 207° |
| 2026-04-28 21:20 | 1.61068 | -33.61912 | 33950 ft | 453 kts | 207° |
| 2026-04-28 21:21 | 1.55559 | -33.64939 | 33948 ft | 453 kts | 207° |
| 2026-04-28 21:21 | 1.50013 | -33.67985 | 33946 ft | 453 kts | 206° |
| 2026-04-28 21:22 | 1.44463 | -33.71033 | 33946 ft | 453 kts | 207° |
| 2026-04-28 21:22 | 1.38962 | -33.74055 | 33945 ft | 452 kts | 207° |
| 2026-04-28 21:23 | 1.33445 | -33.77084 | 33937 ft | 452 kts | 207° |
| 2026-04-28 21:23 | 1.27912 | -33.80123 | 33926 ft | 452 kts | 207° |
| 2026-04-28 21:24 | 1.22398 | -33.83150 | 33925 ft | 453 kts | 207° |
| 2026-04-28 21:24 | 1.16863 | -33.86190 | 33926 ft | 454 kts | 207° |
| 2026-04-28 21:25 | 1.11321 | -33.89233 | 33925 ft | 454 kts | 207° |
| 2026-04-28 21:25 | 1.05775 | -33.92278 | 33925 ft | 454 kts | 207° |
| 2026-04-28 21:26 | 1.00223 | -33.95327 | 33920 ft | 453 kts | 207° |
| 2026-04-28 21:26 | 0.94695 | -33.98362 | 33921 ft | 453 kts | 207° |
| 2026-04-28 21:27 | 0.89173 | -34.01393 | 33925 ft | 454 kts | 207° |
| 2026-04-28 21:27 | 0.83603 | -34.04451 | 33926 ft | 455 kts | 207° |
| 2026-04-28 21:28 | 0.78039 | -34.07507 | 33928 ft | 455 kts | 207° |
| 2026-04-28 21:28 | 0.72510 | -34.10542 | 33926 ft | 454 kts | 207° |
| 2026-04-28 21:29 | 0.66928 | -34.13608 | 33927 ft | 455 kts | 207° |
| 2026-04-28 21:29 | 0.61393 | -34.16647 | 33926 ft | 455 kts | 207° |
| 2026-04-28 21:30 | 0.55812 | -34.19712 | 33928 ft | 456 kts | 206° |
| 2026-04-28 21:30 | 0.50264 | -34.22758 | 33928 ft | 456 kts | 207° |
| 2026-04-28 21:31 | 0.44708 | -34.25808 | 33924 ft | 456 kts | 207° |
| 2026-04-28 21:31 | 0.39101 | -34.28887 | 33931 ft | 457 kts | 207° |
| 2026-04-28 21:32 | 0.33559 | -34.31929 | 33925 ft | 456 kts | 207° |
| 2026-04-28 21:32 | 0.27977 | -34.34994 | 33930 ft | 457 kts | 207° |
| 2026-04-28 21:33 | 0.22390 | -34.38062 | 33928 ft | 457 kts | 206° |
| 2026-04-28 21:33 | 0.16793 | -34.41135 | 33928 ft | 457 kts | 207° |
| 2026-04-28 21:34 | 0.11226 | -34.44191 | 33927 ft | 458 kts | 207° |
| 2026-04-28 21:34 | 0.05630 | -34.47264 | 33922 ft | 459 kts | 207° |
| 2026-04-28 21:35 | 0.00051 | -34.50326 | 33924 ft | 459 kts | 207° |
| 2026-04-28 21:35 | -0.05604 | -34.53431 | 33922 ft | 458 kts | 207° |
| 2026-04-28 21:36 | -0.11167 | -34.56486 | 33928 ft | 458 kts | 207° |
| 2026-04-28 21:36 | -0.16786 | -34.59571 | 33929 ft | 457 kts | 206° |
| 2026-04-28 21:37 | -0.22353 | -34.62627 | 33928 ft | 458 kts | 207° |
| 2026-04-28 21:37 | -0.27836 | -34.65638 | 33927 ft | 459 kts | 206° |
| 2026-04-28 21:38 | -0.33471 | -34.68731 | 33926 ft | 459 kts | 207° |
| 2026-04-28 21:38 | -0.39073 | -34.71807 | 33922 ft | 458 kts | 207° |
| 2026-04-28 21:39 | -0.44646 | -34.74868 | 33927 ft | 458 kts | 207° |
| 2026-04-28 21:39 | -0.50255 | -34.77947 | 33924 ft | 458 kts | 207° |
| 2026-04-28 21:40 | -0.55831 | -34.81009 | 33925 ft | 458 kts | 207° |
| 2026-04-28 21:40 | -0.61432 | -34.84084 | 33923 ft | 458 kts | 207° |
| 2026-04-28 21:41 | -0.67005 | -34.87144 | 33927 ft | 458 kts | 207° |
| 2026-04-28 21:41 | -0.72625 | -34.90231 | 33925 ft | 459 kts | 207° |
| 2026-04-28 21:42 | -0.78228 | -34.93307 | 33924 ft | 459 kts | 207° |
| 2026-04-28 21:42 | -0.83850 | -34.96395 | 33927 ft | 460 kts | 207° |
| 2026-04-28 21:43 | -0.89460 | -34.99475 | 33927 ft | 459 kts | 207° |
| 2026-04-28 21:43 | -0.95035 | -35.02537 | 33927 ft | 458 kts | 207° |
| 2026-04-28 21:44 | -1.00625 | -35.05608 | 33930 ft | 458 kts | 206° |
| 2026-04-28 21:44 | -1.06231 | -35.08686 | 33927 ft | 460 kts | 206° |
| 2026-04-28 21:45 | -1.11862 | -35.11779 | 33935 ft | 459 kts | 206° |
| 2026-04-28 21:45 | -1.17467 | -35.14858 | 33946 ft | 458 kts | 206° |
| 2026-04-28 21:46 | -1.23065 | -35.17932 | 33941 ft | 459 kts | 206° |
| 2026-04-28 21:46 | -1.28624 | -35.20987 | 33936 ft | 458 kts | 206° |
| 2026-04-28 21:47 | -1.34247 | -35.24076 | 33931 ft | 458 kts | 206° |
| 2026-04-28 21:47 | -1.39841 | -35.27149 | 33931 ft | 458 kts | 206° |
| 2026-04-28 21:48 | -1.45415 | -35.30211 | 33931 ft | 458 kts | 206° |
| 2026-04-28 21:48 | -1.51020 | -35.33291 | 33931 ft | 457 kts | 206° |
| 2026-04-28 21:49 | -1.56580 | -35.36346 | 33929 ft | 457 kts | 206° |
| 2026-04-28 21:49 | -1.62171 | -35.39419 | 33928 ft | 457 kts | 206° |
| 2026-04-28 21:50 | -1.67741 | -35.42480 | 33927 ft | 457 kts | 206° |
| 2026-04-28 21:50 | -1.73120 | -35.45875 | 33942 ft | 460 kts | 219° |
| 2026-04-28 21:51 | -1.77304 | -35.50734 | 33946 ft | 466 kts | 234° |
| 2026-04-28 21:51 | -1.80930 | -35.56112 | 33930 ft | 466 kts | 234° |
| 2026-04-28 21:52 | -1.84506 | -35.61480 | 33929 ft | 465 kts | 234° |
| 2026-04-28 21:52 | -1.88096 | -35.66898 | 33921 ft | 465 kts | 234° |
| 2026-04-28 21:53 | -1.91650 | -35.72272 | 33922 ft | 465 kts | 234° |
| 2026-04-28 21:53 | -1.95229 | -35.77689 | 33924 ft | 466 kts | 234° |
| 2026-04-28 21:54 | -1.98788 | -35.83076 | 33924 ft | 466 kts | 234° |
| 2026-04-28 21:54 | -2.02349 | -35.88468 | 33924 ft | 465 kts | 234° |
| 2026-04-28 21:55 | -2.05923 | -35.93880 | 33926 ft | 466 kts | 234° |
| 2026-04-28 21:55 | -2.09482 | -35.99270 | 33925 ft | 467 kts | 234° |
| 2026-04-28 21:56 | -2.13056 | -36.04684 | 33925 ft | 468 kts | 234° |
| 2026-04-28 21:56 | -2.16654 | -36.10134 | 33923 ft | 468 kts | 234° |
| 2026-04-28 21:57 | -2.20221 | -36.15537 | 33928 ft | 469 kts | 234° |
| 2026-04-28 21:57 | -2.23814 | -36.20981 | 33928 ft | 470 kts | 234° |
| 2026-04-28 21:58 | -2.27418 | -36.26441 | 33931 ft | 470 kts | 234° |
| 2026-04-28 21:58 | -2.31002 | -36.31874 | 33928 ft | 470 kts | 234° |
| 2026-04-28 21:59 | -2.34622 | -36.37360 | 33928 ft | 471 kts | 234° |
| 2026-04-28 22:00 | -2.40018 | -36.45539 | 33929 ft | 472 kts | 234° |
| 2026-04-28 22:00 | -2.43646 | -36.51038 | 33927 ft | 473 kts | 235° |
| 2026-04-28 22:01 | -2.47255 | -36.56511 | 33929 ft | 474 kts | 234° |
| 2026-04-28 22:01 | -2.50888 | -36.62020 | 33929 ft | 473 kts | 234° |
| 2026-04-28 22:02 | -2.54518 | -36.67524 | 33919 ft | 473 kts | 235° |
| 2026-04-28 22:02 | -2.58124 | -36.72993 | 33920 ft | 474 kts | 235° |
| 2026-04-28 22:03 | -2.61763 | -36.78514 | 33924 ft | 475 kts | 235° |
| 2026-04-28 22:03 | -2.65404 | -36.84038 | 33923 ft | 474 kts | 235° |
| 2026-04-28 22:04 | -2.69019 | -36.89522 | 33925 ft | 474 kts | 235° |
| 2026-04-28 22:04 | -2.72663 | -36.95052 | 33925 ft | 475 kts | 235° |
| 2026-04-28 22:05 | -2.76287 | -37.00551 | 33925 ft | 476 kts | 235° |
| 2026-04-28 22:05 | -2.79931 | -37.06083 | 33923 ft | 473 kts | 235° |
| 2026-04-28 22:06 | -2.83542 | -37.11565 | 33927 ft | 474 kts | 235° |
| 2026-04-28 22:06 | -2.87163 | -37.17063 | 33925 ft | 475 kts | 235° |
| 2026-04-28 22:07 | -2.90813 | -37.22606 | 33927 ft | 475 kts | 235° |
| 2026-04-28 22:07 | -2.94426 | -37.28092 | 33928 ft | 475 kts | 235° |
| 2026-04-28 22:08 | -2.98072 | -37.33631 | 33927 ft | 474 kts | 234° |
| 2026-04-28 22:08 | -3.01680 | -37.39111 | 33928 ft | 475 kts | 235° |
| 2026-04-28 22:09 | -3.05307 | -37.44622 | 33927 ft | 474 kts | 235° |
| 2026-04-28 22:09 | -3.08926 | -37.50122 | 33940 ft | 474 kts | 235° |
| 2026-04-28 22:10 | -3.12564 | -37.55651 | 33947 ft | 475 kts | 235° |
| 2026-04-28 22:10 | -3.16205 | -37.61184 | 33947 ft | 475 kts | 235° |
| 2026-04-28 22:11 | -3.19844 | -37.66716 | 33940 ft | 473 kts | 235° |
| 2026-04-28 22:11 | -3.23685 | -37.72042 | 33482 ft | 477 kts | 224° |
| 2026-04-28 22:11 | -3.26096 | -37.74246 | 33296 ft | 458 kts | 214° |
| 2026-04-28 22:12 | -3.28655 | -37.76028 | 32800 ft | 448 kts | 212° |
| 2026-04-28 22:12 | -3.31982 | -37.78507 | 31446 ft | 452 kts | 216° |
| 2026-04-28 22:12 | -3.33619 | -37.79829 | 30866 ft | 451 kts | 217° |
| 2026-04-28 22:12 | -3.36035 | -37.81833 | 30165 ft | 444 kts | 218° |
| 2026-04-28 22:13 | -3.38347 | -37.83796 | 29451 ft | 439 kts | 218° |
| 2026-04-28 22:13 | -3.40658 | -37.85786 | 28700 ft | 435 kts | 218° |
| 2026-04-28 22:13 | -3.42942 | -37.87770 | 28065 ft | 430 kts | 218° |
| 2026-04-28 22:13 | -3.45172 | -37.89718 | 27402 ft | 428 kts | 218° |
| 2026-04-28 22:14 | -3.47417 | -37.91686 | 26821 ft | 424 kts | 218° |
| 2026-04-28 22:14 | -3.49605 | -37.93608 | 26214 ft | 421 kts | 218° |
| 2026-04-28 22:14 | -3.51812 | -37.95547 | 25582 ft | 418 kts | 218° |
| 2026-04-28 22:14 | -3.53968 | -37.97443 | 24969 ft | 415 kts | 218° |
| 2026-04-28 22:15 | -3.56133 | -37.99349 | 24377 ft | 412 kts | 218° |
| 2026-04-28 22:15 | -3.58289 | -38.01246 | 23697 ft | 411 kts | 217° |
| 2026-04-28 22:15 | -3.60420 | -38.03121 | 23120 ft | 408 kts | 217° |
| 2026-04-28 22:15 | -3.62562 | -38.05006 | 22392 ft | 409 kts | 217° |
| 2026-04-28 22:16 | -3.64691 | -38.06880 | 21690 ft | 409 kts | 217° |
| 2026-04-28 22:16 | -3.66827 | -38.08756 | 20912 ft | 415 kts | 217° |
| 2026-04-28 22:16 | -3.68992 | -38.10661 | 20134 ft | 420 kts | 218° |
| 2026-04-28 22:16 | -3.71203 | -38.12606 | 19194 ft | 421 kts | 218° |
| 2026-04-28 22:17 | -3.73372 | -38.14517 | 18294 ft | 418 kts | 219° |
| 2026-04-28 22:17 | -3.75565 | -38.16448 | 17381 ft | 415 kts | 219° |
| 2026-04-28 22:17 | -3.77703 | -38.18332 | 16493 ft | 412 kts | 219° |
| 2026-04-28 22:17 | -3.79838 | -38.20213 | 15735 ft | 403 kts | 219° |
| 2026-04-28 22:18 | -3.81926 | -38.22054 | 15030 ft | 394 kts | 219° |
| 2026-04-28 22:18 | -3.83952 | -38.23839 | 14328 ft | 386 kts | 219° |
| 2026-04-28 22:18 | -3.85943 | -38.25595 | 13621 ft | 379 kts | 219° |
| 2026-04-28 22:18 | -3.87908 | -38.27325 | 12916 ft | 372 kts | 219° |
| 2026-04-28 22:19 | -3.89741 | -38.29089 | 12219 ft | 368 kts | 229° |
| 2026-04-28 22:19 | -3.91088 | -38.31262 | 11533 ft | 363 kts | 246° |
| 2026-04-28 22:19 | -3.91743 | -38.33653 | 10860 ft | 359 kts | 263° |
| 2026-04-28 22:19 | -3.91694 | -38.36120 | 10180 ft | 354 kts | 279° |
| 2026-04-28 22:20 | -3.91192 | -38.38497 | 9486 ft | 350 kts | 282° |
| 2026-04-28 22:20 | -3.90648 | -38.40870 | 8758 ft | 347 kts | 283° |
| 2026-04-28 22:20 | -3.90070 | -38.43193 | 8161 ft | 339 kts | 283° |
| 2026-04-28 22:20 | -3.89497 | -38.45440 | 7621 ft | 332 kts | 283° |
| 2026-04-28 22:21 | -3.88920 | -38.47661 | 7065 ft | 325 kts | 283° |
| 2026-04-28 22:21 | -3.88349 | -38.49834 | 6534 ft | 318 kts | 283° |
| 2026-04-28 22:21 | -3.87799 | -38.51917 | 6154 ft | 307 kts | 283° |
| 2026-04-28 22:21 | -3.87260 | -38.53955 | 5892 ft | 293 kts | 283° |
| 2026-04-28 22:22 | -3.86763 | -38.55868 | 5674 ft | 280 kts | 283° |
| 2026-04-28 22:22 | -3.86291 | -38.57715 | 5456 ft | 268 kts | 283° |
| 2026-04-28 22:22 | -3.85836 | -38.59490 | 5225 ft | 258 kts | 283° |
| 2026-04-28 22:22 | -3.85400 | -38.61188 | 5055 ft | 246 kts | 283° |
| 2026-04-28 22:23 | -3.84985 | -38.62807 | 4861 ft | 236 kts | 283° |
| 2026-04-28 22:23 | -3.84581 | -38.64385 | 4707 ft | 230 kts | 283° |
| 2026-04-28 22:23 | -3.84186 | -38.65923 | 4506 ft | 226 kts | 283° |
| 2026-04-28 22:23 | -3.83796 | -38.67447 | 4293 ft | 221 kts | 284° |
| 2026-04-28 22:24 | -3.83431 | -38.68869 | 4183 ft | 202 kts | 284° |
| 2026-04-28 22:24 | -3.83087 | -38.70208 | 4172 ft | 199 kts | 284° |
| 2026-04-28 22:24 | -3.82611 | -38.71538 | 4199 ft | 208 kts | 305° |
| 2026-04-28 22:24 | -3.81497 | -38.72453 | 4044 ft | 212 kts | 342° |
| 2026-04-28 22:25 | -3.80072 | -38.72554 | 3767 ft | 200 kts | 17° |
| 2026-04-28 22:25 | -3.78787 | -38.72146 | 3499 ft | 193 kts | 21° |
| 2026-04-28 22:25 | -3.77509 | -38.71763 | 3203 ft | 185 kts | 19° |
| 2026-04-28 22:25 | -3.76305 | -38.71417 | 2954 ft | 173 kts | 19° |
| 2026-04-28 22:26 | -3.75201 | -38.71105 | 2945 ft | 159 kts | 19° |
| 2026-04-28 22:26 | -3.74120 | -38.70758 | 3032 ft | 168 kts | 32° |
| 2026-04-28 22:26 | -3.73373 | -38.69890 | 3011 ft | 167 kts | 76° |
| 2026-04-28 22:26 | -3.73433 | -38.68768 | 3012 ft | 162 kts | 105° |
| 2026-04-28 22:27 | -3.73751 | -38.67669 | 2805 ft | 163 kts | 104° |
| 2026-04-28 22:27 | -3.74029 | -38.66623 | 2579 ft | 145 kts | 104° |
| 2026-04-28 22:27 | -3.74286 | -38.65663 | 2347 ft | 143 kts | 103° |
| 2026-04-28 22:27 | -3.74550 | -38.64677 | 2172 ft | 146 kts | 103° |
| 2026-04-28 22:28 | -3.74815 | -38.63689 | 1968 ft | 148 kts | 103° |
| 2026-04-28 22:28 | -3.75173 | -38.62363 | 1680 ft | 147 kts | 103° |
| 2026-04-28 22:28 | -3.75351 | -38.61700 | 1545 ft | 148 kts | 103° |
| 2026-04-28 22:28 | -3.75617 | -38.60711 | 1349 ft | 148 kts | 103° |
| 2026-04-28 22:29 | -3.75885 | -38.59719 | 1154 ft | 147 kts | 103° |
| 2026-04-28 22:29 | -3.76152 | -38.58728 | 953 ft | 147 kts | 104° |
| 2026-04-28 22:29 | -3.76419 | -38.57736 | 769 ft | 147 kts | 104° |
| 2026-04-28 22:29 | -3.76680 | -38.56757 | 607 ft | 147 kts | 105° |
| 2026-04-28 22:30 | -3.76959 | -38.55767 | 411 ft | 149 kts | 104° |
| 2026-04-28 22:30 | -3.77232 | -38.54760 | 216 ft | 150 kts | 105° |
| 2026-04-28 22:30 | -3.77500 | -38.53751 | 95 ft | 140 kts | 105° |
| 2026-04-28 22:30 | -3.77663 | -38.53143 | 89 ft | 61 kts | 104° |
| 2026-04-28 22:31 | -3.77755 | -38.52805 | 90 ft | 38 kts | 107° |
| 2026-04-28 22:31 | -3.77807 | -38.52634 | 88 ft | 16 kts | 121° |
| 2026-04-28 22:31 | -3.77859 | -38.52635 | 89 ft | 7 kts | 228° |
| 2026-04-28 22:31 | -3.77880 | -38.52673 | 90 ft | 4 kts | 247° |
| 2026-04-28 22:32 | -3.77893 | -38.52702 | 91 ft | 6 kts | 246° |
| 2026-04-28 22:32 | -3.77912 | -38.52766 | 93 ft | 12 kts | 264° |
| 2026-04-28 22:32 | -3.77902 | -38.52852 | 94 ft | 12 kts | 282° |
| 2026-04-28 22:32 | -3.77878 | -38.52943 | 93 ft | 14 kts | 285° |
| 2026-04-28 22:33 | -3.77852 | -38.53043 | 94 ft | 15 kts | 285° |
| 2026-04-28 22:33 | -3.77825 | -38.53141 | 95 ft | 13 kts | 285° |
| 2026-04-28 22:33 | -3.77805 | -38.53210 | 95 ft | 6 kts | 287° |
| 2026-04-28 22:33 | -3.77806 | -38.53233 | 95 ft | 1 kts | 240° |
| 2026-04-28 22:34 | -3.77813 | -38.53240 | 95 ft | 1 kts | 223° |
| 2026-04-28 22:34 | -3.77817 | -38.53244 | 95 ft | 0 kts | 215° |
| 2026-04-28 22:34 | -3.77829 | -38.53248 | 96 ft | 3 kts | 193° |
| 2026-04-28 22:34 | -3.77853 | -38.53253 | 96 ft | 3 kts | 193° |
| 2026-04-28 22:35 | -3.77870 | -38.53257 | 96 ft | 0 kts | 194° |